• Join FlightAware (Why Join?)
  • Login
  • US Flag 
09:16PM EDT


 

Airport Tracker/Info


-or-


 

Live Flight TrackerFlight Track Log ✈ ASQ5065 ✈ 06-May-2012 ✈ KATL - KSGF

Flight Track Log - Related Links

Times and Time Zones

All times are in EDT time to prevent confusion due to time zone crossing. See the ASQ5065 flight status page for this flight to view local times or setup timezone preferences in your user account.

Time Position Orientation Groundspeed Altitude Reporting Facility
EDT Latitude Longitude Course Direction KTS MPH feet Rate Location/Type
03:41PM 33.6500 -84.4833 287° West 190 219 2,200  Level Atlanta TRACON
03:42PM 33.6667 -84.5500 281° West 262 302 3,600 2,040 Climbing Atlanta TRACON
03:43PM 33.6833 -84.6500 280° West 274 315 6,300 2,340 Climbing Atlanta TRACON
03:44PM 33.7042 -84.7956 281° West 282 325 9,800 1,800 Climbing Atlanta Center
03:45PM 33.7203 -84.8956 279° West 292 336 11,000 1,080 Climbing Atlanta Center
03:46PM 33.7361 -85.0106 280° West 331 381 12,000 1,020 Climbing Atlanta Center
03:47PM 33.7539 -85.1306 280° West 365 420 13,100 1,020 Climbing Atlanta Center
03:48PM 33.7717 -85.2533 283° West 377 434 14,100 960 Climbing Atlanta Center
03:49PM 33.7953 -85.3811 281° West 387 445 15,100 900 Climbing Atlanta Center
03:50PM 33.8147 -85.4989 281° West 392 451 15,900 900 Climbing Atlanta Center
03:51PM 33.8361 -85.6294 290° West 392 451 17,000 1,020 Climbing Atlanta Center
03:52PM 33.8742 -85.7578 292° West 397 457 18,000 960 Climbing Atlanta Center
03:53PM 33.9181 -85.8911 291° West 396 456 19,000 900 Climbing Atlanta Center
03:54PM 33.9578 -86.0172 289° West 396 456 19,900 900 Climbing Atlanta Center
03:55PM 33.9953 -86.1458 289° West 396 456 20,800 840 Climbing Atlanta Center
03:56PM 34.0328 -86.2772 289° West 408 470 21,600 780 Climbing Atlanta Center
03:57PM 34.0700 -86.4086 289° West 413 475 22,400 780 Climbing Atlanta Center
03:58PM 34.1069 -86.5375 288° West 413 475 23,200 720 Climbing Atlanta Center
03:59PM 34.1381 -86.6564 289° West 408 470 23,900 720 Climbing Atlanta Center
04:00PM 34.1747 -86.7831 288° West 408 470 24,700 840 Climbing Atlanta Center
04:02PM 34.2317 -86.9983 290° West 440 506 26,000 720 Climbing Memphis Center
04:03PM 34.2658 -87.1100 289° West 416 479 26,600 600 Climbing Memphis Center
04:04PM 34.3047 -87.2494 289° West 401 461 27,200 540 Climbing Memphis Center
04:05PM 34.3414 -87.3789 288° West 401 461 27,700 480 Climbing Memphis Center
04:06PM 34.3758 -87.5111 289° West 407 468 28,200 480 Climbing Memphis Center
04:07PM 34.4119 -87.6383 287° West 407 468 28,700 480 Climbing Memphis Center
04:08PM 34.4461 -87.7706 288° West 412 474 29,200 480 Climbing Memphis Center
04:09PM 34.4822 -87.9031 287° West 418 481 29,700 360 Climbing Memphis Center
04:10PM 34.5139 -88.0331 288° West 418 481 30,000 120 Climbing Memphis Center
04:11PM 34.5497 -88.1658 287° West 417 480 30,000  Level Memphis Center
04:12PM 34.5833 -88.2961 288° West 433 498 30,000  Level Memphis Center
04:13PM 34.6211 -88.4392 290° West 438 504 30,000  Level Memphis Center
04:14PM 34.6583 -88.5669 286° West 427 491 30,000  Level Memphis Center
04:15PM 34.6917 -88.7053 288° West 421 484 30,000  Level Memphis Center
04:16PM 34.7289 -88.8436 287° West 426 490 30,000  Level Memphis Center
04:17PM 34.7639 -88.9794 287° West 426 490 30,000  Level Memphis Center
04:18PM 34.7986 -89.1178 287° West 426 490 30,000  Level Memphis Center
04:19PM 34.8333 -89.2592 289° West 436 502 30,000  Level Memphis Center
04:20PM 34.8744 -89.4078 288° West 436 502 30,000  Level Memphis Center
04:21PM 34.9108 -89.5467 289° West 436 502 30,000  Level Memphis Center
04:22PM 34.9514 -89.6883 286° West 436 502 30,000  Level Memphis Center
04:23PM 34.9833 -89.8247 285° West 459 528 30,000  Level Memphis Center
04:24PM 35.0150 -89.9667 308° West 446 513 30,000  Level Memphis Center
04:25PM 35.0883 -90.0806 311° West 427 491 30,000  Level Memphis Center
04:26PM 35.1761 -90.2022 313° West 428 493 30,000  Level Memphis Center
04:27PM 35.2578 -90.3114 311° West 433 498 30,000  Level Memphis Center
04:28PM 35.3369 -90.4233 312° West 433 498 30,000  Level Memphis Center
04:29PM 35.4161 -90.5328 312° West 433 498 30,000  Level Memphis Center
04:30PM 35.4953 -90.6400 311° West 432 497 30,000  Level Memphis Center
04:31PM 35.5742 -90.7528 311° West 438 504 30,000  Level Memphis Center
04:32PM 35.6531 -90.8628 310° West 438 504 30,000  Level Memphis Center
04:33PM 35.7256 -90.9708 310° West 430 495 30,000  Level Memphis Center
04:34PM 35.8019 -91.0814 312° West 425 489 30,000  Level Memphis Center
04:35PM 35.8828 -91.1922 311° West 425 489 30,000  Level Memphis Center
04:36PM 35.9611 -91.3033 312° West 425 489 30,000  Level Memphis Center
04:37PM 36.0375 -91.4094 310° West 425 489 30,000 -180 Level Memphis Center
04:38PM 36.1136 -91.5233 312° West 425 489 29,700 -660 Descending Memphis Center
04:39PM 36.1958 -91.6353 310° West 430 495 28,700 -1,020 Descending Memphis Center
04:40PM 36.2697 -91.7444 313° West 430 495 27,700 -1,020 Descending Memphis Center
04:41PM 36.3519 -91.8542 311° West 430 495 26,700 -1,380 Descending Memphis Center
04:42PM 36.4817 -92.0392 311° West 447 514 24,200 -1,740 Descending Kansas City Center
04:43PM 36.5547 -92.1453 309° West 436 502 22,200 -2,040 Descending Kansas City Center
04:44PM 36.6278 -92.2569 310° West 424 488 20,200 -2,040 Descending Kansas City Center
04:45PM 36.7006 -92.3636 311° West 413 475 18,200 -2,040 Descending Kansas City Center
04:46PM 36.7714 -92.4653 310° West 408 470 16,200 -1,080 Descending Kansas City Center
04:47PM 36.8356 -92.5597 310° West 393 452 16,100 -180 Descending Kansas City Center
04:48PM 36.8975 -92.6517 310° West 365 420 15,900 -1,200 Descending Kansas City Center
04:49PM 36.9594 -92.7439 312° West 350 403 13,800 -2,160 Descending Kansas City Center
04:50PM 37.0211 -92.8308 310° West 344 396 11,600 -1,800 Descending Kansas City Center
04:51PM 37.0786 -92.9181 311° West 344 396 10,200 -1,440 Descending Kansas City Center
04:52PM 37.1297 -92.9925 309° West 316 364 8,800 -1,500 Descending Kansas City Center
04:53PM 37.1786 -93.0672 309° West 291 335 7,300 -1,500 Descending Kansas City Center
04:54PM 37.2275 -93.1444 302° West 286 329 5,800 -1,500 Descending Kansas City Center
04:55PM 37.2681 -93.2247 300° West 281 323 4,300 -1,020 Descending Kansas City Center
04:56PM 37.3000 -93.2947 282° West 257 296 3,800 -600 Descending Kansas City Center
04:57PM 37.3111 -93.3622 261° West 224 258 3,100 -660 Descending Kansas City Center
04:58PM 37.3053 -93.4094 184° South 194 223 2,500 -720 Descending Kansas City Center
04:59PM 37.2678 -93.4125 189° South 104 120 1,700 -600 Descending Kansas City Center
05:00PM 37.2408 -93.4181 203° Southwest 94 108 1,300 7,140 Descending Kansas City Center
05:01PM 37.2158 -93.4317 66° East 94 108 16,000 14,700 Climbing Kansas City Center
05:09PM 37.2333 -93.3833 66° East  Level FlightAware Approximate